Time;durP1;ratioP1;P1;durP2;ratioP2;P2;SDS_P1;SDS_P2;PMS_P1;PMS_P2;Temp;Humidity;BMP_temperature;BMP_pressure;BME280_temperature;BME280_humidity;BME280_pressure;Samples;Min_cycle;Max_cycle;Signal;HPM_P1;HPM_P2
2021/12/24 00:02:25;;;;;;;;;;;6.30;99.90;;;;;;5074398;28;20011;-89
2021/12/24 00:04:50;;;;;;;;;;;6.50;99.90;;;;;;5074244;28;19958;-88
2021/12/24 00:07:16;;;;;;;;;;;6.60;99.90;;;;;;5074223;28;19958;-87
2021/12/24 00:09:41;;;;;;;;;;;6.60;99.90;;;;;;5092308;28;19912;-88
2021/12/24 00:12:14;;;;;;;;;;;6.60;99.90;;;;;;5092356;28;19908;-88
2021/12/24 00:14:44;;;;;;;;;;;6.80;99.90;;;;;;5092266;28;20006;-88
2021/12/24 00:17:13;;;;;;;;;;;6.80;99.90;;;;;;5093024;28;19908;-88
2021/12/24 00:19:58;;;;;;;;;;;6.80;99.90;;;;;;5091261;28;20362;-88
2021/12/24 00:36:04;;;;;;;;;;;7.00;99.90;;;;;;5072212;28;20082;-88
2021/12/24 00:38:30;;;;;;;;;;;7.10;99.90;;;;;;5054227;28;20403;-88
2021/12/24 00:40:55;;;;;;;;;;;6.80;99.90;;;;;;5071905;28;19970;-88
2021/12/24 00:43:21;;;;;;;;;;;6.60;99.90;;;;;;5053981;28;19915;-87
2021/12/24 00:45:49;;;;;;;;;;;6.70;99.90;;;;;;5074378;28;19916;-87
2021/12/24 00:48:15;;;;;;;;;;;6.60;99.90;;;;;;5068370;28;20343;-88
2021/12/24 00:51:06;;;;;;;;;;;6.60;99.90;;;;;;5107548;28;19907;-88
2021/12/24 00:56:02;;;;;;;;;;;6.60;99.90;;;;;;5095893;28;19908;-88
2021/12/24 00:58:27;;;;;;;;;;;6.50;99.90;;;;;;5077386;28;19953;-88
2021/12/24 01:00:53;;;;;;;;;;;6.50;99.90;;;;;;5077324;28;19908;-88
2021/12/24 01:03:18;;;;;;;;;;;6.50;99.90;;;;;;5077274;28;19908;-88
2021/12/24 01:05:44;;;;;;;;;;;6.60;99.90;;;;;;5077150;28;19957;-88
2021/12/24 01:08:11;;;;;;;;;;;6.60;99.90;;;;;;5095283;28;20385;-87
2021/12/24 01:10:38;;;;;;;;;;;6.40;99.90;;;;;;5077005;28;19931;-87
2021/12/24 01:13:04;;;;;;;;;;;6.60;99.90;;;;;;5077203;28;20369;-87
2021/12/24 01:15:31;;;;;;;;;;;6.30;99.90;;;;;;5095308;28;19959;-86
2021/12/24 01:18:06;;;;;;;;;;;6.50;99.90;;;;;;5098098;28;20045;-87
2021/12/24 01:20:44;;;;;;;;;;;6.40;99.90;;;;;;5107920;28;19912;-88
2021/12/24 01:25:59;;;;;;;;;;;6.30;99.90;;;;;;5109196;28;19919;-88
2021/12/24 01:39:24;;;;;;;;;;;5.40;99.90;;;;;;5095007;28;19968;-87
2021/12/24 01:44:34;;;;;;;;;;;5.00;99.90;;;;;;5094979;28;20473;-91
2021/12/24 01:47:01;;;;;;;;;;;5.00;99.90;;;;;;5077216;28;19955;-90
2021/12/24 01:49:26;;;;;;;;;;;4.90;99.90;;;;;;5085330;28;20011;-91
2021/12/24 01:51:52;;;;;;;;;;;4.60;99.90;;;;;;5100536;28;19983;-90
2021/12/24 01:54:18;;;;;;;;;;;4.50;99.90;;;;;;5076868;28;19908;-90
2021/12/24 01:56:44;;;;;;;;;;;4.70;99.90;;;;;;5076544;28;19954;-90
2021/12/24 01:59:10;;;;;;;;;;;4.70;99.90;;;;;;5094981;28;20267;-90
2021/12/24 02:01:35;;;;;;;;;;;4.70;99.90;;;;;;5095134;28;19915;-90
2021/12/24 02:04:01;;;;;;;;;;;4.70;99.90;;;;;;5077529;28;19909;-90
2021/12/24 02:06:27;;;;;;;;;;;4.80;99.90;;;;;;5094917;28;20355;-90
2021/12/24 02:08:52;;;;;;;;;;;4.80;99.90;;;;;;5076463;28;19921;-90
2021/12/24 02:11:18;;;;;;;;;;;4.70;99.90;;;;;;5076847;28;19974;-90
2021/12/24 02:13:44;;;;;;;;;;;4.70;99.90;;;;;;5076484;28;20271;-90
2021/12/24 02:29:33;;;;;;;;;;;4.60;99.90;;;;;;5096532;28;20011;-90
2021/12/24 02:31:58;;;;;;;;;;;4.60;99.90;;;;;;5077370;28;19944;-90
2021/12/24 02:34:24;;;;;;;;;;;4.70;99.90;;;;;;5076182;28;19908;-90
2021/12/24 02:36:50;;;;;;;;;;;4.50;99.90;;;;;;5076492;28;19908;-90
2021/12/24 02:39:16;;;;;;;;;;;4.40;99.90;;;;;;5076352;28;20274;-90
2021/12/24 02:41:42;;;;;;;;;;;4.40;99.90;;;;;;5076666;28;19958;-90
2021/12/24 02:44:07;;;;;;;;;;;4.60;99.90;;;;;;5077119;28;20366;-90
2021/12/24 02:53:55;;;;;;;;;;;4.90;99.90;;;;;;5096519;28;19966;-90
2021/12/24 02:54:28;;;;;;;;;;;5.10;99.90;;;;;;5094459;28;20381;-89
2021/12/24 02:56:59;;;;;;;;;;;5.20;99.90;;;;;;5076074;28;19908;-90
2021/12/24 02:59:26;;;;;;;;;;;5.10;99.90;;;;;;5076138;28;19908;-90
2021/12/24 03:01:52;;;;;;;;;;;5.20;99.90;;;;;;5075785;28;20008;-89
2021/12/24 03:04:18;;;;;;;;;;;5.10;99.90;;;;;;5075794;28;19999;-90
2021/12/24 03:06:45;;;;;;;;;;;5.10;99.90;;;;;;5093475;28;19955;-90
2021/12/24 03:09:14;;;;;;;;;;;5.20;99.90;;;;;;5093595;28;20400;-90
2021/12/24 03:11:39;;;;;;;;;;;5.20;99.90;;;;;;5076001;28;19956;-90
2021/12/24 03:14:06;;;;;;;;;;;5.20;99.90;;;;;;5075445;28;20294;-89
2021/12/24 03:16:32;;;;;;;;;;;5.10;99.90;;;;;;5075598;28;19908;-90
2021/12/24 03:18:57;;;;;;;;;;;5.10;99.90;;;;;;5075618;28;19915;-90
2021/12/24 03:21:30;;;;;;;;;;;5.00;99.90;;;;;;5075478;28;19916;-89
2021/12/24 03:26:28;;;;;;;;;;;4.90;99.90;;;;;;5093704;28;19915;-90
2021/12/24 03:28:54;;;;;;;;;;;4.90;99.90;;;;;;5093647;28;19912;-90
2021/12/24 03:31:19;;;;;;;;;;;4.80;99.90;;;;;;5093679;28;19919;-90
2021/12/24 03:33:45;;;;;;;;;;;4.80;99.90;;;;;;5075556;28;20378;-90
2021/12/24 03:36:10;;;;;;;;;;;4.80;99.90;;;;;;5093548;28;19915;-90
2021/12/24 03:38:36;;;;;;;;;;;5.00;99.90;;;;;;5075556;28;19919;-89
2021/12/24 03:41:02;;;;;;;;;;;4.80;99.90;;;;;;5075300;28;19923;-90
2021/12/24 03:43:28;;;;;;;;;;;4.70;99.90;;;;;;5093252;28;19908;-90
2021/12/24 03:48:39;;;;;;;;;;;4.70;99.90;;;;;;5093124;28;19977;-91
2021/12/24 03:56:24;;;;;;;;;;;4.30;99.90;;;;;;5093609;28;19957;-89
2021/12/24 03:58:49;;;;;;;;;;;4.20;99.90;;;;;;5075330;28;20309;-90
2021/12/24 04:01:15;;;;;;;;;;;4.20;99.90;;;;;;5075087;28;19908;-90
2021/12/24 04:03:40;;;;;;;;;;;4.20;99.90;;;;;;5093059;28;19958;-90
2021/12/24 04:06:06;;;;;;;;;;;4.30;99.90;;;;;;5092977;28;19912;-90
2021/12/24 04:08:31;;;;;;;;;;;4.20;99.90;;;;;;5093140;28;19912;-90
2021/12/24 04:10:57;;;;;;;;;;;4.40;99.90;;;;;;5075148;28;19908;-90
2021/12/24 04:13:58;;;;;;;;;;;4.70;99.90;;;;;;5092852;28;19912;-90
2021/12/24 04:16:24;;;;;;;;;;;4.80;99.90;;;;;;5074964;28;20260;-90
2021/12/24 04:19:03;;;;;;;;;;;4.40;99.90;;;;;;5078103;28;19914;-90
2021/12/24 04:26:57;;;;;;;;;;;4.30;99.90;;;;;;5097358;28;19915;-90
2021/12/24 04:29:22;;;;;;;;;;;4.50;99.90;;;;;;5096708;28;19924;-90
2021/12/24 04:31:56;;;;;;;;;;;4.60;99.90;;;;;;5078629;28;19915;-90
2021/12/24 04:34:26;;;;;;;;;;;4.70;99.90;;;;;;5078578;28;19923;-90
2021/12/24 05:01:47;;;;;;;;;;;5.30;99.90;;;;;;5116916;28;19915;-90
2021/12/24 05:04:14;;;;;;;;;;;5.40;99.90;;;;;;5097951;28;19973;-91
2021/12/24 05:06:50;;;;;;;;;;;5.30;99.90;;;;;;5116663;28;19908;-90
2021/12/24 05:09:20;;;;;;;;;;;5.40;99.90;;;;;;5097850;28;19962;-90
2021/12/24 05:11:45;;;;;;;;;;;5.50;99.90;;;;;;5116372;28;19954;-90
2021/12/24 05:14:15;;;;;;;;;;;5.60;99.90;;;;;;5097871;28;20316;-90
2021/12/24 05:16:53;;;;;;;;;;;5.60;99.90;;;;;;5097943;28;20503;-90
2021/12/24 05:22:03;;;;;;;;;;;5.70;99.90;;;;;;5095820;28;19935;-90
2021/12/24 05:24:30;;;;;;;;;;;5.70;99.90;;;;;;5077256;28;20370;-90
2021/12/24 05:26:57;;;;;;;;;;;5.70;99.90;;;;;;5077402;28;19912;-90
2021/12/24 05:29:23;;;;;;;;;;;5.80;99.90;;;;;;5077350;28;19923;-90
2021/12/24 05:31:49;;;;;;;;;;;5.70;99.90;;;;;;5076542;28;19908;-90
2021/12/24 05:34:16;;;;;;;;;;;5.70;99.90;;;;;;5095463;28;19955;-90
2021/12/24 05:36:42;;;;;;;;;;;5.90;99.90;;;;;;5095577;28;19944;-90
2021/12/24 05:39:10;;;;;;;;;;;6.20;99.90;;;;;;5077018;28;20448;-91
2021/12/24 05:41:36;;;;;;;;;;;6.30;99.90;;;;;;5077526;28;19962;-90
2021/12/24 05:44:03;;;;;;;;;;;6.30;99.90;;;;;;5077853;28;19912;-90
2021/12/24 05:46:29;;;;;;;;;;;6.20;99.90;;;;;;5077131;28;19939;-90
2021/12/24 05:48:54;;;;;;;;;;;6.10;99.90;;;;;;5077038;28;19959;-90
2021/12/24 05:51:20;;;;;;;;;;;6.10;99.90;;;;;;5076937;28;20397;-90
2021/12/24 05:53:45;;;;;;;;;;;6.10;99.90;;;;;;5077222;28;19908;-90
2021/12/24 05:56:11;;;;;;;;;;;6.00;99.90;;;;;;5092610;28;19900;-91
2021/12/24 05:58:37;;;;;;;;;;;5.90;99.90;;;;;;5102025;28;19978;-90
2021/12/24 06:01:02;;;;;;;;;;;5.80;99.90;;;;;;5076838;28;19912;-90
2021/12/24 06:03:28;;;;;;;;;;;6.00;99.90;;;;;;5076651;28;19908;-90
2021/12/24 06:05:53;;;;;;;;;;;6.00;99.90;;;;;;5076723;28;19954;-90
2021/12/24 06:08:19;;;;;;;;;;;6.00;99.90;;;;;;5076525;28;19917;-90
2021/12/24 06:10:44;;;;;;;;;;;6.00;99.90;;;;;;5076749;28;19912;-90
2021/12/24 06:13:10;;;;;;;;;;;6.20;99.90;;;;;;5076399;28;20002;-90
2021/12/24 06:15:43;;;;;;;;;;;6.30;99.90;;;;;;5094548;28;19915;-90
2021/12/24 06:18:26;;;;;;;;;;;6.30;99.90;;;;;;5094710;28;20279;-90
2021/12/24 06:20:52;;;;;;;;;;;6.40;99.90;;;;;;5087227;28;19915;-90
2021/12/24 06:23:21;;;;;;;;;;;6.30;99.90;;;;;;5096746;28;19930;-89
2021/12/24 06:25:47;;;;;;;;;;;6.40;99.90;;;;;;5096667;28;19970;-90
2021/12/24 06:28:12;;;;;;;;;;;6.30;99.90;;;;;;5096330;28;19989;-90
2021/12/24 06:30:39;;;;;;;;;;;6.20;99.90;;;;;;5096784;28;20386;-90
2021/12/24 06:33:04;;;;;;;;;;;6.20;99.90;;;;;;5097086;28;20011;-90
2021/12/24 06:35:30;;;;;;;;;;;6.20;99.90;;;;;;5096463;28;20014;-90
2021/12/24 06:37:56;;;;;;;;;;;6.10;99.90;;;;;;5096402;28;19915;-90
2021/12/24 06:40:22;;;;;;;;;;;6.10;99.90;;;;;;5096240;28;19923;-89
2021/12/24 06:42:47;;;;;;;;;;;6.20;99.90;;;;;;5095398;28;19908;-91
2021/12/24 06:45:13;;;;;;;;;;;6.10;99.90;;;;;;5096174;28;19953;-90
2021/12/24 06:47:38;;;;;;;;;;;6.10;99.90;;;;;;5113790;28;20396;-90
2021/12/24 06:50:05;;;;;;;;;;;6.10;99.90;;;;;;5075826;28;20018;-90
2021/12/24 06:52:30;;;;;;;;;;;6.10;99.90;;;;;;5075818;28;20366;-90
2021/12/24 06:54:56;;;;;;;;;;;6.20;99.90;;;;;;5075803;28;20046;-91
2021/12/24 06:57:24;;;;;;;;;;;6.20;99.90;;;;;;5075583;28;19908;-90
2021/12/24 06:59:50;;;;;;;;;;;6.20;99.90;;;;;;5075827;28;19944;-91
2021/12/24 07:02:15;;;;;;;;;;;6.00;99.90;;;;;;5075579;28;19958;-90
2021/12/24 07:04:41;;;;;;;;;;;6.00;99.90;;;;;;5075858;28;20260;-90
2021/12/24 07:07:06;;;;;;;;;;;6.10;99.90;;;;;;5093625;28;19908;-90
2021/12/24 07:09:32;;;;;;;;;;;6.00;99.90;;;;;;5075652;28;19916;-90
2021/12/24 07:11:57;;;;;;;;;;;6.00;99.90;;;;;;5075482;28;20003;-90
2021/12/24 07:14:23;;;;;;;;;;;5.80;99.90;;;;;;5075671;28;20329;-90
2021/12/24 07:16:49;;;;;;;;;;;5.80;99.90;;;;;;5075482;28;19912;-90
2021/12/24 07:19:18;;;;;;;;;;;5.80;99.90;;;;;;5075410;28;19908;-90
2021/12/24 07:21:44;;;;;;;;;;;5.90;99.90;;;;;;5093603;28;20363;-90
2021/12/24 07:24:09;;;;;;;;;;;5.80;99.90;;;;;;5075455;28;19956;-90
2021/12/24 07:26:35;;;;;;;;;;;5.80;99.90;;;;;;5093643;28;19916;-91
2021/12/24 07:29:00;;;;;;;;;;;5.80;99.90;;;;;;5093531;28;19912;-90
2021/12/24 07:31:26;;;;;;;;;;;5.80;99.90;;;;;;5078081;28;20050;-90
2021/12/24 07:33:54;;;;;;;;;;;5.90;99.90;;;;;;5090542;28;19916;-89
2021/12/24 07:36:20;;;;;;;;;;;5.90;99.90;;;;;;5078352;28;19965;-91
2021/12/24 07:41:50;;;;;;;;;;;5.80;99.90;;;;;;5093552;28;20045;-91
2021/12/24 07:44:19;;;;;;;;;;;5.60;99.90;;;;;;5075258;28;19917;-91
2021/12/24 07:47:03;;;;;;;;;;;5.80;99.90;;;;;;5075588;28;20002;-90
2021/12/24 07:52:01;;;;;;;;;;;6.00;99.90;;;;;;5113397;28;19915;-91
2021/12/24 07:54:26;;;;;;;;;;;6.00;99.90;;;;;;5098092;28;20389;-89
2021/12/24 07:56:52;;;;;;;;;;;5.90;99.90;;;;;;5099341;28;19907;-90
2021/12/24 07:59:18;;;;;;;;;;;5.80;99.90;;;;;;5099755;28;19915;-90
2021/12/24 08:01:44;;;;;;;;;;;5.70;99.90;;;;;;5099909;28;19912;-90
2021/12/24 08:04:11;;;;;;;;;;;5.70;99.90;;;;;;5099640;28;20316;-90
2021/12/24 08:09:39;;;;;;;;;;;5.70;99.90;;;;;;5117658;28;19938;-90
2021/12/24 08:12:06;;;;;;;;;;;5.70;99.90;;;;;;5099260;28;19908;-89
2021/12/24 08:14:31;;;;;;;;;;;5.80;99.90;;;;;;5118422;28;19947;-90
2021/12/24 08:16:57;;;;;;;;;;;5.90;99.90;;;;;;5099330;28;19908;-90
2021/12/24 08:19:22;;;;;;;;;;;6.00;99.90;;;;;;5099404;28;19912;-90
2021/12/24 08:21:48;;;;;;;;;;;6.10;99.90;;;;;;5099264;28;19907;-90
2021/12/24 08:24:19;;;;;;;;;;;6.20;99.90;;;;;;5099254;28;20309;-90
2021/12/24 08:26:45;;;;;;;;;;;6.30;99.90;;;;;;5099104;28;19914;-90
2021/12/24 08:29:10;;;;;;;;;;;6.30;99.90;;;;;;5099265;28;19912;-91
2021/12/24 08:31:36;;;;;;;;;;;6.20;99.90;;;;;;5099070;28;19915;-90
2021/12/24 08:34:03;;;;;;;;;;;6.20;99.90;;;;;;5098963;28;19914;-90
2021/12/24 08:36:28;;;;;;;;;;;6.20;99.90;;;;;;5117199;28;20338;-91
2021/12/24 08:38:55;;;;;;;;;;;6.20;99.90;;;;;;5116902;28;19908;-91
2021/12/24 08:41:21;;;;;;;;;;;6.20;99.90;;;;;;5098609;28;20417;-91
2021/12/24 08:43:46;;;;;;;;;;;6.10;99.90;;;;;;5098503;28;19951;-92
2021/12/24 08:46:12;;;;;;;;;;;6.10;99.90;;;;;;5098815;28;19915;-90
2021/12/24 08:48:37;;;;;;;;;;;6.10;99.90;;;;;;5098712;28;19912;-90
2021/12/24 08:51:03;;;;;;;;;;;6.10;99.90;;;;;;5099365;28;19961;-90
2021/12/24 08:53:28;;;;;;;;;;;6.10;99.90;;;;;;5117153;28;19998;-91
2021/12/24 08:55:54;;;;;;;;;;;6.20;99.90;;;;;;5099636;28;19914;-90
2021/12/24 08:58:19;;;;;;;;;;;6.20;99.90;;;;;;5101285;28;20002;-89
2021/12/24 09:00:47;;;;;;;;;;;6.20;99.90;;;;;;5120566;28;19986;-90
2021/12/24 09:03:12;;;;;;;;;;;6.20;99.90;;;;;;5102127;28;19951;-89
2021/12/24 09:05:38;;;;;;;;;;;6.20;99.90;;;;;;5113985;28;19915;-91
2021/12/24 09:08:03;;;;;;;;;;;6.10;99.90;;;;;;5137043;28;19939;-90
2021/12/24 09:10:29;;;;;;;;;;;6.10;99.90;;;;;;5098820;28;20435;-89
2021/12/24 09:13:01;;;;;;;;;;;6.10;99.90;;;;;;5098346;28;19957;-89
2021/12/24 09:15:30;;;;;;;;;;;6.20;99.90;;;;;;5098154;28;19907;-89
2021/12/24 09:17:59;;;;;;;;;;;6.10;99.90;;;;;;5116070;28;20560;-91
2021/12/24 09:20:30;;;;;;;;;;;6.10;99.90;;;;;;5097747;28;19915;-89
2021/12/24 09:22:56;;;;;;;;;;;6.10;99.90;;;;;;5078376;28;20003;-91
2021/12/24 09:25:23;;;;;;;;;;;6.20;99.90;;;;;;5095583;28;19940;-89
2021/12/24 09:27:49;;;;;;;;;;;6.10;99.90;;;;;;5097322;28;19914;-89
2021/12/24 09:30:14;;;;;;;;;;;6.00;99.90;;;;;;5077799;28;19999;-88
2021/12/24 09:32:40;;;;;;;;;;;6.00;99.90;;;;;;5077793;28;19912;-89
2021/12/24 09:35:07;;;;;;;;;;;6.00;99.90;;;;;;5095631;28;19915;-88
2021/12/24 09:37:32;;;;;;;;;;;6.20;99.90;;;;;;5077749;28;19908;-89
2021/12/24 09:39:58;;;;;;;;;;;6.20;99.90;;;;;;5059034;28;20010;-89
2021/12/24 09:42:24;;;;;;;;;;;6.20;99.90;;;;;;5075350;28;20013;-89
2021/12/24 09:44:49;;;;;;;;;;;6.10;99.90;;;;;;5057054;28;20276;-88
2021/12/24 09:47:15;;;;;;;;;;;6.20;99.90;;;;;;5057121;28;19962;-89
2021/12/24 09:49:40;;;;;;;;;;;6.20;99.90;;;;;;5079872;28;19912;-89
2021/12/24 09:52:06;;;;;;;;;;;6.20;99.90;;;;;;5077274;28;19950;-89
2021/12/24 09:54:32;;;;;;;;;;;6.30;99.90;;;;;;5095307;28;20501;-89
2021/12/24 09:56:57;;;;;;;;;;;6.30;99.90;;;;;;5077312;28;20011;-89
2021/12/24 09:59:23;;;;;;;;;;;6.30;99.90;;;;;;5077194;28;19958;-89
2021/12/24 10:01:57;;;;;;;;;;;6.30;99.90;;;;;;5077344;28;20312;-88
2021/12/24 10:04:24;;;;;;;;;;;6.30;99.90;;;;;;5095169;28;19916;-90
2021/12/24 10:06:55;;;;;;;;;;;6.30;99.90;;;;;;5097364;28;19935;-88
2021/12/24 10:09:27;;;;;;;;;;;6.40;99.90;;;;;;5076816;28;19916;-88
2021/12/24 10:11:58;;;;;;;;;;;6.40;99.90;;;;;;5076931;28;19919;-88
2021/12/24 10:14:29;;;;;;;;;;;6.40;99.90;;;;;;5076529;28;19973;-89
2021/12/24 10:16:54;;;;;;;;;;;6.50;99.90;;;;;;5076456;28;20381;-88
2021/12/24 10:19:20;;;;;;;;;;;6.60;99.90;;;;;;5082978;28;19912;-88
2021/12/24 10:21:56;;;;;;;;;;;6.50;99.90;;;;;;5114562;28;20405;-88
2021/12/24 10:24:23;;;;;;;;;;;6.50;99.90;;;;;;5089127;28;19908;-88
2021/12/24 10:26:50;;;;;;;;;;;6.50;99.90;;;;;;5076177;28;19958;-88
2021/12/24 10:29:19;;;;;;;;;;;6.60;99.90;;;;;;5094274;28;19919;-88
2021/12/24 10:31:48;;;;;;;;;;;6.50;99.90;;;;;;5077035;28;19922;-88
2021/12/24 10:34:25;;;;;;;;;;;6.50;99.90;;;;;;5076574;28;19912;-88
2021/12/24 10:36:52;;;;;;;;;;;6.50;99.90;;;;;;5076318;28;20349;-90
2021/12/24 10:39:18;;;;;;;;;;;6.50;99.90;;;;;;5076133;28;20278;-89
2021/12/24 10:41:45;;;;;;;;;;;6.50;99.90;;;;;;5075810;28;20370;-89
2021/12/24 10:44:14;;;;;;;;;;;6.50;99.90;;;;;;5093896;28;20008;-88
2021/12/24 10:46:40;;;;;;;;;;;6.50;99.90;;;;;;5094416;28;19934;-88
2021/12/24 10:49:48;;;;;;;;;;;6.40;99.90;;;;;;5075999;28;20290;-88
2021/12/24 10:54:51;;;;;;;;;;;6.50;99.90;;;;;;5074748;28;19918;-88
2021/12/24 10:57:18;;;;;;;;;;;6.50;99.90;;;;;;5057670;28;20282;-88
2021/12/24 10:59:44;;;;;;;;;;;6.50;99.90;;;;;;5075706;28;19919;-88
2021/12/24 11:02:11;;;;;;;;;;;6.60;99.90;;;;;;5075735;28;19908;-89
2021/12/24 11:04:37;;;;;;;;;;;6.60;99.90;;;;;;5075739;28;19908;-89
2021/12/24 11:07:02;;;;;;;;;;;6.60;99.90;;;;;;5093520;28;19908;-90
2021/12/24 11:09:28;;;;;;;;;;;6.60;99.90;;;;;;5075692;28;19912;-90
2021/12/24 11:11:56;;;;;;;;;;;6.60;99.90;;;;;;5093640;28;19908;-88
2021/12/24 11:14:21;;;;;;;;;;;6.60;99.90;;;;;;5076163;28;19930;-88
2021/12/24 11:16:47;;;;;;;;;;;6.60;99.90;;;;;;5093477;28;19908;-89
2021/12/24 11:19:12;;;;;;;;;;;6.60;99.90;;;;;;5089178;28;19912;-89
2021/12/24 11:21:38;;;;;;;;;;;6.60;99.90;;;;;;5095843;28;19908;-90
2021/12/24 11:24:04;;;;;;;;;;;6.70;99.90;;;;;;5095750;28;19955;-88
2021/12/24 11:26:32;;;;;;;;;;;6.70;99.90;;;;;;5114111;28;20247;-88
2021/12/24 11:28:58;;;;;;;;;;;6.80;99.90;;;;;;5113099;28;19918;-88
2021/12/24 11:31:25;;;;;;;;;;;6.80;99.90;;;;;;5113925;28;20270;-89
2021/12/24 11:33:52;;;;;;;;;;;6.80;99.90;;;;;;5113671;28;19908;-89
2021/12/24 11:36:18;;;;;;;;;;;6.80;99.90;;;;;;5095272;28;19933;-89
2021/12/24 11:38:45;;;;;;;;;;;6.90;99.90;;;;;;5093664;28;19908;-88
2021/12/24 11:41:13;;;;;;;;;;;6.80;99.90;;;;;;5075554;28;19930;-88
2021/12/24 11:43:40;;;;;;;;;;;6.80;99.90;;;;;;5093210;28;20424;-88
2021/12/24 11:46:07;;;;;;;;;;;6.90;99.90;;;;;;5093272;28;19912;-88
2021/12/24 11:48:33;;;;;;;;;;;7.00;99.90;;;;;;5075185;28;20039;-88
2021/12/24 11:51:00;;;;;;;;;;;7.10;99.90;;;;;;5074994;28;19940;-90
2021/12/24 11:53:26;;;;;;;;;;;7.10;99.90;;;;;;5093090;28;19915;-89
2021/12/24 11:55:52;;;;;;;;;;;7.20;99.90;;;;;;5075009;28;19908;-89
2021/12/24 11:58:22;;;;;;;;;;;7.20;99.90;;;;;;5093496;28;19958;-90
2021/12/24 12:00:49;;;;;;;;;;;7.20;99.90;;;;;;5075212;28;19971;-89
2021/12/24 12:03:35;;;;;;;;;;;7.20;99.90;;;;;;5075657;28;19908;-89
2021/12/24 12:06:01;;;;;;;;;;;7.30;99.90;;;;;;5075554;28;19925;-89
2021/12/24 12:08:29;;;;;;;;;;;7.30;99.90;;;;;;5075797;28;19908;-88
2021/12/24 12:10:57;;;;;;;;;;;7.40;99.90;;;;;;5075515;28;20393;-88
2021/12/24 12:13:40;;;;;;;;;;;7.40;99.90;;;;;;5075744;28;19919;-89
2021/12/24 12:16:08;;;;;;;;;;;7.30;99.90;;;;;;5075485;28;20001;-88
2021/12/24 12:18:43;;;;;;;;;;;7.30;99.90;;;;;;5075724;28;20405;-90
2021/12/24 12:21:10;;;;;;;;;;;7.30;99.90;;;;;;5075485;28;19915;-88
2021/12/24 12:29:47;;;;;;;;;;;7.30;99.90;;;;;;5093264;28;19912;-89
2021/12/24 12:32:12;;;;;;;;;;;7.30;99.90;;;;;;5077364;28;19912;-89
2021/12/24 12:38:01;;;;;;;;;;;7.30;99.90;;;;;;5073002;28;19939;-89
2021/12/24 12:40:29;;;;;;;;;;;7.30;99.90;;;;;;5057115;28;19915;-90
2021/12/24 12:42:58;;;;;;;;;;;7.30;99.90;;;;;;5058453;28;19909;-90
2021/12/24 12:45:33;;;;;;;;;;;7.30;99.90;;;;;;5058506;28;19974;-89
2021/12/24 12:54:24;;;;;;;;;;;7.30;99.90;;;;;;5076406;28;19916;-89
2021/12/24 12:57:08;;;;;;;;;;;7.40;99.90;;;;;;5058058;28;19912;-90
2021/12/24 12:59:34;;;;;;;;;;;7.30;99.90;;;;;;5058334;28;19909;-89
2021/12/24 13:02:01;;;;;;;;;;;7.40;99.90;;;;;;5058398;28;19916;-89
2021/12/24 13:04:26;;;;;;;;;;;7.40;99.90;;;;;;5061167;28;19908;-90
2021/12/24 13:06:53;;;;;;;;;;;7.50;99.90;;;;;;5057978;28;19923;-90
2021/12/24 13:09:23;;;;;;;;;;;7.60;99.90;;;;;;5057972;28;19916;-90
2021/12/24 13:11:50;;;;;;;;;;;7.60;99.90;;;;;;5057958;28;19909;-90
2021/12/24 13:14:50;;;;;;;;;;;7.60;99.90;;;;;;5057958;28;19908;-90
2021/12/24 13:17:18;;;;;;;;;;;7.60;99.90;;;;;;5058121;28;19923;-89
2021/12/24 13:22:29;;;;;;;;;;;7.70;99.90;;;;;;5075884;28;19913;-90
2021/12/24 13:24:54;;;;;;;;;;;7.70;99.90;;;;;;5058108;28;19909;-90
2021/12/24 13:27:26;;;;;;;;;;;7.60;99.90;;;;;;5075687;28;19923;-89
2021/12/24 13:30:07;;;;;;;;;;;7.60;99.90;;;;;;5057909;28;20383;-89
2021/12/24 13:32:36;;;;;;;;;;;7.60;99.90;;;;;;5057859;28;19909;-88
2021/12/24 13:35:02;;;;;;;;;;;7.60;99.90;;;;;;5057861;28;19909;-89
2021/12/24 13:37:30;;;;;;;;;;;7.50;99.90;;;;;;5061165;28;19930;-89
2021/12/24 13:40:06;;;;;;;;;;;7.50;99.90;;;;;;5059351;28;20355;-88
2021/12/24 13:42:40;;;;;;;;;;;7.60;99.90;;;;;;5063689;28;19915;-90
2021/12/24 13:45:10;;;;;;;;;;;7.50;99.90;;;;;;5061812;28;19938;-89
2021/12/24 13:58:39;;;;;;;;;;;7.60;99.90;;;;;;5075888;28;19961;-89
2021/12/24 14:01:05;;;;;;;;;;;7.60;99.90;;;;;;5057524;28;19976;-89
2021/12/24 14:03:32;;;;;;;;;;;7.60;99.90;;;;;;5057651;28;19963;-89
2021/12/24 14:06:00;;;;;;;;;;;7.60;99.90;;;;;;5058011;28;19947;-89
2021/12/24 14:08:28;;;;;;;;;;;7.60;99.90;;;;;;5075860;28;19908;-89
2021/12/24 14:11:05;;;;;;;;;;;7.70;99.90;;;;;;5061278;28;19916;-90
2021/12/24 14:13:35;;;;;;;;;;;7.70;99.90;;;;;;5064870;28;19909;-88
2021/12/24 14:23:31;;;;;;;;;;;7.40;99.90;;;;;;5092115;28;19947;-72
2021/12/24 14:25:58;;;;;;;;;;;7.30;99.90;;;;;;5092236;28;19908;-75
2021/12/24 14:28:24;;;;;;;;;;;7.40;99.90;;;;;;5091775;28;20395;-72
2021/12/24 14:31:03;;;;;;;;;;;7.40;99.90;;;;;;5089860;28;19920;-72
2021/12/24 14:33:33;;;;;;;;;;;7.40;99.90;;;;;;5089320;28;20280;-74
2021/12/24 14:36:00;;;;;;;;;;;7.50;99.90;;;;;;5073836;28;19931;-71
2021/12/24 14:38:26;;;;;;;;;;;7.50;99.90;;;;;;5074061;28;19908;-71
2021/12/24 14:40:58;;;;;;;;;;;7.50;99.90;;;;;;5091985;28;19926;-72
2021/12/24 14:43:25;;;;;;;;;;;7.60;99.90;;;;;;5091637;28;19908;-72
2021/12/24 14:45:50;;;;;;;;;;;7.60;99.90;;;;;;5092243;28;20380;-72
2021/12/24 14:48:16;;;;;;;;;;;7.50;99.90;;;;;;5091153;28;19908;-72
2021/12/24 14:50:41;;;;;;;;;;;7.50;99.90;;;;;;5091353;28;19930;-73
2021/12/24 14:53:10;;;;;;;;;;;7.40;99.90;;;;;;5091378;28;19912;-72
2021/12/24 14:56:02;;;;;;;;;;;7.40;99.90;;;;;;5091889;28;19957;-73
2021/12/24 14:58:43;;;;;;;;;;;7.40;99.90;;;;;;5054296;28;19951;-71
2021/12/24 15:01:11;;;;;;;;;;;7.40;99.90;;;;;;5073646;28;19908;-71
2021/12/24 15:03:38;;;;;;;;;;;7.30;99.90;;;;;;5090245;28;19994;-71
2021/12/24 15:06:15;;;;;;;;;;;7.20;99.90;;;;;;5091897;28;19912;-71
2021/12/24 15:08:41;;;;;;;;;;;7.10;99.90;;;;;;5091626;28;19912;-71
2021/12/24 15:11:11;;;;;;;;;;;7.00;99.90;;;;;;5073505;28;19915;-71
2021/12/24 15:13:38;;;;;;;;;;;7.00;99.90;;;;;;5090599;28;19947;-71
2021/12/24 15:16:04;;;;;;;;;;;6.80;99.90;;;;;;5087946;28;19985;-71
2021/12/24 15:18:29;;;;;;;;;;;6.80;99.90;;;;;;5090623;28;20805;-71
2021/12/24 15:20:55;;;;;;;;;;;6.80;99.90;;;;;;5091097;28;19916;-71
2021/12/24 15:23:21;;;;;;;;;;;6.90;99.90;;;;;;5090770;28;20373;-72
2021/12/24 15:25:47;;;;;;;;;;;6.90;99.90;;;;;;5091485;28;19908;-74
2021/12/24 15:28:15;;;;;;;;;;;6.80;99.90;;;;;;5091217;28;19958;-73
2021/12/24 15:30:40;;;;;;;;;;;6.80;99.90;;;;;;5088232;28;19923;-74
2021/12/24 15:33:07;;;;;;;;;;;6.80;99.90;;;;;;5086464;28;19912;-72
2021/12/24 15:35:33;;;;;;;;;;;6.70;99.90;;;;;;5091389;28;19908;-72
2021/12/24 15:37:59;;;;;;;;;;;6.70;99.90;;;;;;5091288;28;19915;-72
2021/12/24 15:40:25;;;;;;;;;;;6.70;99.90;;;;;;5073254;28;19932;-76
2021/12/24 15:42:50;;;;;;;;;;;6.70;99.90;;;;;;5091061;28;19912;-71
2021/12/24 15:45:16;;;;;;;;;;;6.80;99.90;;;;;;5090888;28;19965;-72
2021/12/24 15:47:41;;;;;;;;;;;6.80;99.90;;;;;;5089938;28;19914;-72
2021/12/24 15:50:07;;;;;;;;;;;6.80;99.90;;;;;;5084817;28;19912;-75
2021/12/24 15:52:32;;;;;;;;;;;6.80;99.90;;;;;;5087483;28;20338;-72
2021/12/24 15:54:58;;;;;;;;;;;6.80;99.90;;;;;;5087284;28;20127;-72
2021/12/24 15:57:23;;;;;;;;;;;6.60;99.90;;;;;;5089654;28;19912;-72
2021/12/24 15:59:49;;;;;;;;;;;6.60;99.90;;;;;;5089595;28;19908;-75
2021/12/24 16:02:14;;;;;;;;;;;6.60;99.90;;;;;;5089766;28;19908;-72
2021/12/24 16:04:40;;;;;;;;;;;6.80;99.90;;;;;;5089387;28;20015;-72
2021/12/24 16:07:06;;;;;;;;;;;6.70;99.90;;;;;;5091113;28;19912;-72
2021/12/24 16:09:31;;;;;;;;;;;6.60;99.90;;;;;;5090749;28;20379;-73
2021/12/24 16:11:57;;;;;;;;;;;6.60;99.90;;;;;;5090818;28;19908;-72
2021/12/24 16:14:23;;;;;;;;;;;6.70;99.90;;;;;;5090806;28;20012;-72
2021/12/24 16:16:49;;;;;;;;;;;6.70;99.90;;;;;;5094882;28;19908;-72
2021/12/24 16:19:15;;;;;;;;;;;6.80;99.90;;;;;;5091767;28;19952;-71
2021/12/24 16:21:41;;;;;;;;;;;6.80;99.90;;;;;;5094321;28;19961;-73
2021/12/24 16:24:07;;;;;;;;;;;6.80;99.90;;;;;;5094105;28;20320;-73
2021/12/24 16:26:33;;;;;;;;;;;6.80;99.90;;;;;;5076505;28;20008;-73
2021/12/24 16:28:58;;;;;;;;;;;6.70;99.90;;;;;;5094869;28;20049;-73
2021/12/24 16:31:24;;;;;;;;;;;6.60;99.90;;;;;;5076310;28;19908;-73
2021/12/24 16:33:49;;;;;;;;;;;6.60;99.90;;;;;;5094010;28;19915;-73
2021/12/24 16:36:15;;;;;;;;;;;6.60;99.90;;;;;;5094351;28;19912;-73
2021/12/24 16:38:40;;;;;;;;;;;6.50;99.90;;;;;;5094458;28;20001;-73
2021/12/24 16:41:06;;;;;;;;;;;6.50;99.90;;;;;;5094043;28;20409;-72
2021/12/24 16:43:31;;;;;;;;;;;6.60;99.90;;;;;;5093820;28;19912;-73
2021/12/24 16:45:58;;;;;;;;;;;6.50;99.90;;;;;;5094417;28;19909;-73
2021/12/24 16:48:24;;;;;;;;;;;6.70;99.90;;;;;;5089043;28;19935;-73
2021/12/24 16:50:50;;;;;;;;;;;6.80;99.90;;;;;;5093377;28;20372;-73
2021/12/24 16:53:15;;;;;;;;;;;6.90;99.90;;;;;;5075496;28;19909;-74
2021/12/24 16:55:41;;;;;;;;;;;6.80;99.90;;;;;;5093848;28;20754;-73
2021/12/24 16:58:07;;;;;;;;;;;6.80;99.90;;;;;;5075701;28;19908;-73